Rorvik, Rorvik Airport (ENRM)

NameRorvik Airport
CityRorvik
CountryNorway
ICAOENRM
IATARVK
Altitude4 m
CoordinatesGoogle Map
Live Air TrafficLiveATC.net
METARENRM 172050Z 33013KT 9999 -SHSN FEW015TCU SCT040 M01/M06 Q0997
2019-01-17 20:50:00 Wind: Northwest (330°) 6.69 m/s - Visibility: > 10000 m - Weather: Light Showers Snow - Temperature: -1 °C - Dew point: -6 °C - Humidity: 69.2% - Pressure: 0997 hPa
Statistics

The table below shows the detailed information of all flights to/from Rorvik, Rorvik Airport (ENRM).